createdAt,value
2018-08-18T00:02:23.078Z,12.17
2018-08-18T00:05:26.840Z,18.50
2018-08-18T00:08:30.575Z,23.20
2018-08-18T00:11:34.240Z,13.53
2018-08-18T00:14:38.015Z,12.73
2018-08-18T00:17:41.743Z,17.20
2018-08-18T00:20:45.466Z,14.93
2018-08-18T00:23:59.618Z,19.70
2018-08-18T00:27:03.449Z,16.77
2018-08-18T00:30:14.259Z,14.50
2018-08-18T00:33:18.066Z,16.87
2018-08-18T00:36:21.869Z,17.03
2018-08-18T00:39:26.090Z,14.90
2018-08-18T00:42:33.585Z,16.30
2018-08-18T00:45:37.313Z,15.90
2018-08-18T00:48:40.969Z,14.63
2018-08-18T00:51:44.785Z,16.33
2018-08-18T00:54:48.374Z,16.40
2018-08-18T00:57:52.144Z,15.40
2018-08-18T01:01:01.115Z,15.30
2018-08-18T01:04:09.720Z,15.83
2018-08-18T01:07:15.884Z,16.60
2018-08-18T01:10:19.648Z,15.73
2018-08-18T01:13:23.268Z,16.97
2018-08-18T01:16:26.950Z,16.07
2018-08-18T01:19:30.694Z,15.97
2018-08-18T01:22:34.399Z,15.63
2018-08-18T01:25:38.171Z,15.90
2018-08-18T01:28:41.865Z,17.93
2018-08-18T01:31:46.021Z,21.27
2018-08-18T01:34:50.794Z,16.67
2018-08-18T01:37:54.476Z,27.33
2018-08-18T01:41:11.394Z,24.77
2018-08-18T01:44:18.999Z,25.60
2018-08-18T01:47:22.905Z,24.90
2018-08-18T01:50:26.594Z,24.90
2018-08-18T01:53:30.313Z,20.37
2018-08-18T01:56:33.920Z,19.10
2018-08-18T01:59:38.874Z,19.37
2018-08-18T02:02:42.534Z,19.80
2018-08-18T02:05:46.405Z,24.53
2018-08-18T02:08:58.258Z,20.90
2018-08-18T02:12:01.962Z,18.80
2018-08-18T02:15:05.634Z,20.27
2018-08-18T02:18:09.326Z,13.23
2018-08-18T02:21:35.786Z,19.80
2018-08-18T02:24:39.644Z,23.90
2018-08-18T02:27:43.409Z,23.97
2018-08-18T02:30:47.125Z,23.20
2018-08-18T02:33:50.772Z,19.97
2018-08-18T02:36:54.576Z,19.47
2018-08-18T02:39:58.259Z,19.83
2018-08-18T02:43:02.121Z,21.47
2018-08-18T02:46:31.477Z,16.30
2018-08-18T02:49:41.273Z,20.80
2018-08-18T02:52:45.081Z,23.00
2018-08-18T02:55:48.882Z,21.57
2018-08-18T02:58:57.741Z,19.03
2018-08-18T03:02:01.525Z,20.13
2018-08-18T03:05:05.745Z,20.90
2018-08-18T03:08:09.874Z,20.33
2018-08-18T03:11:13.526Z,17.47
2018-08-18T03:14:17.252Z,20.13
2018-08-18T03:17:21.016Z,19.00
2018-08-18T03:20:24.739Z,17.20
2018-08-18T03:23:28.342Z,21.40
2018-08-18T03:26:45.510Z,16.53
2018-08-18T03:29:51.984Z,18.30
2018-08-18T03:32:55.735Z,13.90
2018-08-18T03:35:59.573Z,17.20
2018-08-18T03:39:03.510Z,15.93
2018-08-18T03:42:07.140Z,18.33
2018-08-18T03:45:10.928Z,17.33
2018-08-18T03:48:14.648Z,18.97
2018-08-18T03:51:18.635Z,20.13
2018-08-18T03:54:22.434Z,21.90
2018-08-18T03:57:41.551Z,22.73
2018-08-18T04:00:45.281Z,23.87
2018-08-18T04:03:49.003Z,20.03
2018-08-18T04:06:53.931Z,24.57
2018-08-18T04:10:01.699Z,22.20
2018-08-18T04:13:05.436Z,24.27
2018-08-18T04:16:09.248Z,24.87
2018-08-18T04:19:12.983Z,28.33
2018-08-18T04:22:16.991Z,24.90
2018-08-18T04:25:20.826Z,21.70
2018-08-18T04:28:24.438Z,20.87
2018-08-18T04:31:33.047Z,27.57
2018-08-18T04:34:36.703Z,32.70
2018-08-18T04:37:40.641Z,31.60
2018-08-18T04:40:44.316Z,25.43
2018-08-18T04:43:48.148Z,30.53
2018-08-18T04:46:51.796Z,30.17
2018-08-18T04:49:55.503Z,28.23
2018-08-18T04:52:59.216Z,28.20
2018-08-18T04:56:02.866Z,25.47
2018-08-18T04:59:06.596Z,24.60
2018-08-18T05:02:10.448Z,26.23
2018-08-18T05:05:14.373Z,23.23
2018-08-18T05:08:18.053Z,22.83
2018-08-18T05:11:21.701Z,21.50
2018-08-18T05:14:25.383Z,21.33
2018-08-18T05:17:29.079Z,21.50
2018-08-18T05:20:33.389Z,19.27
2018-08-18T05:23:37.092Z,16.80
2018-08-18T05:26:40.753Z,18.10
2018-08-18T05:29:44.673Z,17.93
2018-08-18T05:32:48.450Z,16.73
2018-08-18T05:35:52.143Z,18.13
2018-08-18T05:38:55.835Z,14.07
2018-08-18T05:41:59.550Z,15.47
2018-08-18T05:45:18.477Z,13.27
2018-08-18T05:48:22.154Z,16.43
2018-08-18T05:51:26.005Z,14.83
2018-08-18T05:54:29.634Z,15.30
2018-08-18T05:57:33.338Z,19.30
2018-08-18T06:00:37.321Z,14.83
2018-08-18T06:03:40.952Z,16.50
2018-08-18T06:06:45.660Z,13.63
2018-08-18T06:09:49.294Z,18.30
2018-08-18T06:12:53.067Z,16.70
2018-08-18T06:16:10.513Z,13.87
2018-08-18T06:19:14.347Z,13.33
2018-08-18T06:22:17.991Z,13.03
2018-08-18T06:25:21.943Z,10.73
2018-08-18T06:28:26.368Z,14.03
2018-08-18T06:31:30.274Z,13.03
2018-08-18T06:34:34.703Z,16.30
2018-08-18T06:37:38.540Z,15.67
2018-08-18T06:40:44.640Z,16.20
2018-08-18T06:43:48.388Z,15.70
2018-08-18T06:46:52.059Z,17.87
2018-08-18T06:49:55.808Z,15.60
2018-08-18T06:52:59.662Z,17.50
2018-08-18T06:56:05.343Z,14.43
2018-08-18T06:59:10.362Z,17.70
2018-08-18T07:02:14.320Z,17.70
2018-08-18T07:05:18.999Z,17.93
2018-08-18T07:08:22.654Z,17.53
2018-08-18T07:11:26.815Z,17.63
2018-08-18T07:14:30.528Z,15.40
2018-08-18T07:17:34.339Z,18.00
2018-08-18T07:20:38.124Z,16.97
2018-08-18T07:23:41.807Z,17.43
2018-08-18T07:26:45.434Z,17.10
2018-08-18T07:29:51.036Z,17.77
2018-08-18T07:32:54.914Z,16.23
2018-08-18T07:35:58.584Z,16.57
2018-08-18T07:39:02.639Z,16.00
2018-08-18T07:42:06.304Z,14.13
2018-08-18T07:45:10.093Z,16.03
2018-08-18T07:48:15.002Z,16.27
2018-08-18T07:51:18.724Z,17.53
2018-08-18T07:54:22.630Z,15.63
2018-08-18T07:57:26.451Z,22.43
2018-08-18T08:00:32.904Z,16.20
2018-08-18T08:03:36.528Z,13.57
2018-08-18T08:06:40.278Z,18.27
2018-08-18T08:09:44.970Z,15.50
2018-08-18T08:12:48.937Z,19.87
2018-08-18T08:15:52.575Z,17.27
2018-08-18T08:18:56.365Z,20.30
2018-08-18T08:22:00.749Z,13.33
2018-08-18T08:25:05.422Z,17.50
2018-08-18T08:28:09.133Z,18.90
2018-08-18T08:31:12.830Z,16.00
2018-08-18T08:34:16.503Z,12.70
2018-08-18T08:37:20.230Z,20.53
2018-08-18T08:40:24.786Z,17.63
2018-08-18T08:43:35.437Z,15.17
2018-08-18T08:46:43.378Z,11.07
2018-08-18T08:49:47.131Z,17.83
2018-08-18T08:52:53.224Z,12.37
2018-08-18T08:55:56.905Z,13.77
2018-08-18T08:59:00.844Z,11.50
2018-08-18T09:02:04.839Z,9.53
2018-08-18T09:05:08.885Z,10.13
2018-08-18T09:08:12.630Z,11.03
2018-08-18T09:11:16.279Z,11.10
2018-08-18T09:14:19.971Z,9.80
2018-08-18T09:17:23.598Z,8.73
2018-08-18T09:20:28.176Z,7.20
2018-08-18T09:23:36.009Z,8.83
2018-08-18T09:26:44.900Z,7.43
2018-08-18T09:29:48.540Z,7.57
2018-08-18T09:32:52.263Z,8.40
2018-08-18T09:36:03.922Z,8.30
2018-08-18T09:39:12.858Z,7.80
2018-08-18T09:42:17.819Z,9.27
2018-08-18T09:45:21.646Z,4.17
2018-08-18T09:48:26.004Z,4.90
2018-08-18T09:51:29.681Z,7.40
2018-08-18T09:54:33.380Z,6.83
2018-08-18T09:57:37.232Z,9.53
2018-08-18T10:00:41.677Z,9.60
2018-08-18T10:03:45.313Z,6.10
2018-08-18T10:06:49.220Z,5.43
2018-08-18T10:09:52.839Z,8.07
2018-08-18T10:12:56.551Z,6.90
2018-08-18T10:16:00.231Z,7.93
2018-08-18T10:19:03.976Z,6.37
2018-08-18T10:22:07.777Z,12.63
2018-08-18T10:25:11.472Z,8.07
2018-08-18T10:28:15.301Z,8.57
2018-08-18T10:31:19.001Z,7.40
2018-08-18T10:34:23.887Z,7.10
2018-08-18T10:37:27.621Z,6.10
2018-08-18T10:40:31.445Z,5.83
2018-08-18T10:43:35.220Z,6.73
2018-08-18T10:46:38.952Z,5.20
2018-08-18T10:49:53.908Z,5.60
2018-08-18T10:52:59.017Z,12.90
2018-08-18T10:56:02.725Z,7.20
2018-08-18T10:59:15.637Z,10.10
2018-08-18T11:02:31.888Z,4.97
2018-08-18T11:05:35.721Z,6.77
2018-08-18T11:08:39.562Z,11.87
2018-08-18T11:11:43.276Z,8.20
2018-08-18T11:14:51.122Z,7.90
2018-08-18T11:17:55.273Z,10.67
2018-08-18T11:20:58.935Z,12.10
2018-08-18T11:24:07.361Z,11.27
2018-08-18T11:27:11.166Z,7.90
2018-08-18T11:30:14.832Z,6.40
2018-08-18T11:33:34.936Z,9.60
2018-08-18T11:36:43.752Z,10.70
2018-08-18T11:39:49.426Z,7.20
2018-08-18T11:42:56.347Z,8.73
2018-08-18T11:46:00.016Z,7.53
2018-08-18T11:49:03.848Z,7.60
2018-08-18T11:52:07.693Z,7.87
2018-08-18T11:55:11.370Z,6.70
2018-08-18T11:58:16.759Z,8.20
2018-08-18T12:01:24.613Z,5.63
2018-08-18T12:04:30.237Z,11.40
2018-08-18T12:07:33.902Z,7.20
2018-08-18T12:10:40.766Z,10.90
2018-08-18T12:13:44.522Z,9.53
2018-08-18T12:16:48.972Z,5.80
2018-08-18T12:19:57.465Z,6.07
2018-08-18T12:23:01.192Z,7.10
2018-08-18T12:26:11.528Z,5.40
2018-08-18T12:29:15.267Z,6.40
2018-08-18T12:32:24.027Z,9.53
2018-08-18T12:35:31.611Z,7.87
2018-08-18T12:38:35.508Z,7.97
2018-08-18T12:41:39.267Z,8.07
2018-08-18T12:44:43.792Z,5.33
2018-08-18T12:48:10.016Z,8.00
2018-08-18T12:51:14.993Z,6.57
2018-08-18T12:54:18.758Z,6.10
2018-08-18T12:57:33.541Z,9.33
2018-08-18T13:00:37.274Z,6.60
2018-08-18T13:03:41.012Z,7.40
2018-08-18T13:06:47.264Z,7.50
2018-08-18T13:09:59.504Z,6.93
2018-08-18T13:13:03.254Z,6.43
2018-08-18T13:16:06.988Z,7.13
2018-08-18T13:19:12.009Z,8.90
2018-08-18T13:22:15.906Z,5.87
2018-08-18T13:25:19.672Z,6.77
2018-08-18T13:28:23.546Z,8.47
2018-08-18T13:31:33.797Z,7.80
2018-08-18T13:34:37.508Z,7.10
2018-08-18T13:37:41.268Z,9.83
2018-08-18T13:40:44.948Z,6.63
2018-08-18T13:43:48.690Z,8.13
2018-08-18T13:46:52.554Z,12.57
2018-08-18T13:50:01.312Z,10.00
2018-08-18T13:53:05.083Z,6.57
2018-08-18T13:56:08.934Z,6.10
2018-08-18T13:59:12.629Z,6.90
2018-08-18T14:02:16.359Z,7.90
2018-08-18T14:05:26.083Z,9.23
2018-08-18T14:08:29.963Z,5.63
2018-08-18T14:11:33.684Z,11.67
2018-08-18T14:14:37.374Z,6.20
2018-08-18T14:17:41.733Z,8.67
2018-08-18T14:20:59.019Z,6.80
2018-08-18T14:24:02.784Z,13.57
2018-08-18T14:27:13.078Z,6.87
2018-08-18T14:30:16.818Z,8.23
2018-08-18T14:33:20.595Z,7.10
2018-08-18T14:36:24.654Z,7.30
2018-08-18T14:39:37.223Z,6.00
2018-08-18T14:42:40.859Z,6.20
2018-08-18T14:45:44.567Z,9.80
2018-08-18T14:48:48.248Z,7.33
2018-08-18T14:51:52.025Z,7.40
2018-08-18T14:54:55.641Z,8.80
2018-08-18T14:58:03.496Z,9.77
2018-08-18T15:01:12.260Z,6.67
2018-08-18T15:04:15.872Z,9.53
2018-08-18T15:07:19.541Z,6.83
2018-08-18T15:10:34.250Z,8.27
2018-08-18T15:13:38.090Z,10.27
2018-08-18T15:16:41.823Z,8.13
2018-08-18T15:19:45.565Z,6.90
2018-08-18T15:22:49.279Z,10.20
2018-08-18T15:25:52.933Z,9.53
2018-08-18T15:28:56.813Z,8.80
2018-08-18T15:32:00.556Z,12.70
2018-08-18T15:35:04.305Z,9.03
2018-08-18T15:38:09.330Z,9.40
2018-08-18T15:41:13.303Z,5.80
2018-08-18T15:44:16.975Z,7.90
2018-08-18T15:47:20.647Z,6.33
2018-08-18T15:50:25.079Z,9.47
2018-08-18T15:53:52.623Z,7.07
2018-08-18T15:56:56.312Z,7.87
2018-08-18T15:59:59.997Z,7.17
2018-08-18T16:03:03.876Z,7.00
2018-08-18T16:06:07.742Z,10.73
2018-08-18T16:09:11.492Z,8.10
2018-08-18T16:12:15.208Z,7.90
2018-08-18T16:15:21.257Z,8.17
2018-08-18T16:18:24.993Z,7.50
2018-08-18T16:21:29.699Z,9.40
2018-08-18T16:24:37.396Z,6.53
2018-08-18T16:27:41.118Z,7.30
2018-08-18T16:30:44.897Z,10.90
2018-08-18T16:33:51.318Z,7.70
2018-08-18T16:36:55.029Z,6.40
2018-08-18T16:39:58.788Z,6.73
2018-08-18T16:43:04.663Z,10.20
2018-08-18T16:46:20.271Z,6.93
2018-08-18T16:49:23.979Z,5.27
2018-08-18T16:52:27.672Z,8.43
2018-08-18T16:55:34.269Z,22.70
2018-08-18T16:58:38.124Z,6.17
2018-08-18T17:01:41.808Z,10.30
2018-08-18T17:04:46.300Z,5.10
2018-08-18T17:07:49.980Z,7.77
2018-08-18T17:10:53.761Z,10.03
2018-08-18T17:13:59.421Z,7.37
2018-08-18T17:17:03.134Z,12.33
2018-08-18T17:20:08.119Z,13.97
2018-08-18T17:23:11.906Z,11.17
2018-08-18T17:26:15.650Z,9.80
2018-08-18T17:29:19.281Z,12.93
2018-08-18T17:32:25.506Z,14.50
2018-08-18T17:35:29.230Z,6.67
2018-08-18T17:38:33.011Z,5.07
2018-08-18T17:41:36.749Z,5.90
2018-08-18T17:44:40.403Z,6.93
2018-08-18T17:47:51.195Z,7.53
2018-08-18T17:50:55.578Z,7.47
2018-08-18T17:53:59.451Z,8.57
2018-08-18T17:57:03.601Z,4.97
2018-08-18T18:00:14.439Z,6.47
2018-08-18T18:03:18.184Z,4.90
2018-08-18T18:06:23.359Z,6.40
2018-08-18T18:09:29.712Z,5.57
2018-08-18T18:12:34.722Z,4.83
2018-08-18T18:15:39.438Z,5.80
2018-08-18T18:18:46.331Z,6.30
2018-08-18T18:21:49.995Z,7.40
2018-08-18T18:24:53.731Z,4.20
2018-08-18T18:27:57.680Z,9.67
2018-08-18T18:31:01.391Z,6.20
2018-08-18T18:34:05.264Z,8.10
2018-08-18T18:37:09.082Z,5.67
2018-08-18T18:40:12.983Z,6.70
2018-08-18T18:43:16.706Z,6.77
2018-08-18T18:46:20.366Z,5.13
2018-08-18T18:49:30.734Z,9.30
2018-08-18T18:52:34.811Z,5.33
2018-08-18T18:55:44.409Z,5.00
2018-08-18T18:58:48.161Z,5.77
2018-08-18T19:01:51.885Z,4.80
2018-08-18T19:04:55.817Z,8.90
2018-08-18T19:08:01.837Z,6.23
2018-08-18T19:11:05.656Z,4.73
2018-08-18T19:14:09.407Z,16.00
2018-08-18T19:17:13.123Z,9.17
2018-08-18T19:20:23.277Z,6.07
2018-08-18T19:23:27.037Z,11.67
2018-08-18T19:26:40.998Z,11.10
2018-08-18T19:29:44.802Z,9.23
2018-08-18T19:32:49.924Z,6.27
2018-08-18T19:35:54.604Z,8.77
2018-08-18T19:38:58.381Z,8.07
2018-08-18T19:42:08.555Z,7.83
2018-08-18T19:45:12.361Z,11.67
2018-08-18T19:48:20.612Z,13.30
2018-08-18T19:51:24.337Z,7.83
2018-08-18T19:54:28.000Z,9.43
2018-08-18T19:57:36.686Z,7.33
2018-08-18T20:00:40.376Z,11.63
2018-08-18T20:03:44.112Z,8.70
2018-08-18T20:06:47.918Z,15.20
2018-08-18T20:09:51.548Z,11.43
2018-08-18T20:12:55.342Z,9.87
2018-08-18T20:16:03.421Z,9.00
2018-08-18T20:19:07.150Z,8.20
2018-08-18T20:22:15.618Z,10.63
2018-08-18T20:25:19.380Z,11.13
2018-08-18T20:28:23.029Z,13.10
2018-08-18T20:31:26.751Z,11.90
2018-08-18T20:34:30.579Z,8.53
2018-08-18T20:37:34.233Z,17.70
2018-08-18T20:40:38.027Z,14.03
2018-08-18T20:43:44.005Z,8.47
2018-08-18T20:46:47.647Z,8.67
2018-08-18T20:49:51.328Z,8.67
2018-08-18T20:52:59.263Z,12.80
2018-08-18T20:56:03.606Z,12.27
2018-08-18T20:59:08.061Z,11.47
2018-08-18T21:02:11.782Z,13.43
2018-08-18T21:05:15.472Z,15.43
2018-08-18T21:08:19.651Z,10.37
2018-08-18T21:11:23.367Z,12.80
2018-08-18T21:14:29.359Z,14.20
2018-08-18T21:17:33.017Z,10.23
2018-08-18T21:20:36.741Z,11.20
2018-08-18T21:23:40.476Z,12.50
2018-08-18T21:26:45.392Z,12.47
2018-08-18T21:29:49.031Z,16.90
2018-08-18T21:32:52.736Z,8.87
2018-08-18T21:35:56.477Z,12.30
2018-08-18T21:39:01.907Z,8.77
2018-08-18T21:42:06.054Z,14.13
2018-08-18T21:45:11.659Z,10.13
2018-08-18T21:48:15.214Z,11.13
2018-08-18T21:51:21.975Z,14.00
2018-08-18T21:54:26.491Z,8.50
2018-08-18T21:57:30.925Z,10.63
2018-08-18T22:00:39.944Z,14.10
2018-08-18T22:03:43.702Z,10.93
2018-08-18T22:06:47.400Z,15.37
2018-08-18T22:09:51.133Z,11.83
2018-08-18T22:12:54.892Z,13.70
2018-08-18T22:15:58.611Z,10.80
2018-08-18T22:19:03.819Z,9.50
2018-08-18T22:22:08.535Z,9.33
2018-08-18T22:25:12.476Z,13.53
2018-08-18T22:28:16.027Z,14.47
2018-08-18T22:31:19.684Z,11.40
2018-08-18T22:34:23.468Z,16.10
2018-08-18T22:37:27.244Z,13.23
2018-08-18T22:40:30.869Z,14.60
2018-08-18T22:43:35.789Z,22.73
2018-08-18T22:46:39.450Z,15.20
2018-08-18T22:49:43.083Z,12.47
2018-08-18T22:52:49.234Z,16.10
2018-08-18T22:55:52.859Z,12.83
2018-08-18T22:59:03.200Z,12.37
2018-08-18T23:02:06.860Z,15.10
2018-08-18T23:05:10.659Z,17.20
2018-08-18T23:08:14.255Z,20.40
2018-08-18T23:11:17.948Z,16.40
2018-08-18T23:14:21.589Z,16.87
2018-08-18T23:17:25.224Z,14.80
2018-08-18T23:20:28.953Z,14.73
2018-08-18T23:23:32.679Z,17.10
2018-08-18T23:26:36.325Z,15.70
2018-08-18T23:29:39.945Z,19.63
2018-08-18T23:32:43.695Z,13.20
2018-08-18T23:35:47.461Z,15.50
2018-08-18T23:38:56.343Z,12.60
2018-08-18T23:42:11.005Z,13.40
2018-08-18T23:45:14.688Z,13.27
2018-08-18T23:48:18.380Z,18.57
2018-08-18T23:51:28.333Z,12.87
2018-08-18T23:54:32.974Z,13.27
2018-08-18T23:57:36.554Z,15.70
